createdAt,value
2022-07-28T08:20:30.019Z,0.30
2022-07-28T08:22:59.189Z,0.50
2022-07-28T08:25:28.205Z,0.30
2022-07-28T08:27:56.654Z,0.30
2022-07-28T08:30:31.765Z,0.23
2022-07-28T08:33:00.690Z,0.40
2022-07-28T08:35:33.586Z,0.40
2022-07-28T08:38:04.286Z,0.50
2022-07-28T08:40:33.503Z,0.30
2022-07-28T08:43:10.638Z,0.40
2022-07-28T08:45:42.312Z,0.30
2022-07-28T08:48:13.100Z,0.20
2022-07-28T08:50:45.181Z,0.30
2022-07-28T08:53:15.773Z,0.47
2022-07-28T08:55:44.662Z,0.37
2022-07-28T08:58:14.226Z,0.30
2022-07-28T09:00:43.211Z,0.30
2022-07-28T09:03:13.715Z,0.40
2022-07-28T09:05:45.141Z,0.60
2022-07-28T09:08:13.850Z,0.30
2022-07-28T09:10:42.311Z,0.30
2022-07-28T09:13:13.509Z,0.30
2022-07-28T09:15:42.294Z,0.33
2022-07-28T09:18:10.811Z,0.30
2022-07-28T09:20:40.841Z,0.23
2022-07-28T09:23:43.275Z,0.60
2022-07-28T09:26:10.822Z,0.30
2022-07-28T09:28:49.394Z,0.40
2022-07-28T09:31:18.848Z,0.40
2022-07-28T09:34:00.901Z,0.50
2022-07-28T09:36:38.423Z,0.30
2022-07-28T09:39:11.917Z,0.40
2022-07-28T09:41:49.854Z,0.50
2022-07-28T09:44:20.605Z,0.33
2022-07-28T09:46:48.837Z,0.30
2022-07-28T09:49:18.450Z,0.30
2022-07-28T09:52:01.461Z,0.40
2022-07-28T09:54:31.191Z,0.27
2022-07-28T09:56:59.602Z,0.33
2022-07-28T09:59:44.819Z,0.50
2022-07-28T10:02:25.562Z,0.30
2022-07-28T10:04:55.828Z,0.40
2022-07-28T10:07:24.236Z,0.40
2022-07-28T10:10:01.421Z,0.30
2022-07-28T10:12:31.404Z,0.57
2022-07-28T10:15:02.066Z,0.40
2022-07-28T10:17:32.611Z,0.20
2022-07-28T10:20:02.300Z,0.20
2022-07-28T10:22:40.941Z,0.43
2022-07-28T10:25:13.411Z,0.40
2022-07-28T10:27:43.934Z,0.40
2022-07-28T10:30:13.757Z,0.40
2022-07-28T10:32:46.192Z,0.40
2022-07-28T10:35:15.734Z,0.27
2022-07-28T10:37:51.215Z,0.30
2022-07-28T10:40:23.989Z,0.30
2022-07-28T10:42:53.361Z,0.33
2022-07-28T10:45:47.981Z,0.30
2022-07-28T10:48:17.951Z,0.20
2022-07-28T10:50:46.588Z,0.30
2022-07-28T10:53:25.194Z,0.30
2022-07-28T10:56:03.782Z,0.30
2022-07-28T10:58:42.110Z,0.30
2022-07-28T11:01:26.651Z,0.20
2022-07-28T11:03:59.335Z,0.20
2022-07-28T11:06:32.965Z,0.20
2022-07-28T11:09:21.475Z,0.20
2022-07-28T11:11:52.708Z,0.30
2022-07-28T11:14:37.305Z,0.27
2022-07-28T11:17:19.924Z,0.20
2022-07-28T11:20:24.754Z,0.20
2022-07-28T11:22:48.332Z,0.30
2022-07-28T11:25:22.103Z,0.37
2022-07-28T11:28:06.083Z,0.17
2022-07-28T11:30:56.352Z,0.20
2022-07-28T11:33:27.444Z,0.20
2022-07-28T11:35:58.930Z,0.40
2022-07-28T11:38:34.835Z,0.40
2022-07-28T11:41:03.364Z,0.50
2022-07-28T11:43:41.058Z,0.40
2022-07-28T11:46:38.485Z,0.30
2022-07-28T11:49:27.990Z,0.40
2022-07-28T11:52:12.391Z,0.40
2022-07-28T11:54:44.180Z,0.30
2022-07-28T11:57:13.859Z,0.23
2022-07-28T11:59:47.264Z,0.37
2022-07-28T12:02:23.865Z,0.50
2022-07-28T12:05:04.549Z,0.30
2022-07-28T12:07:38.754Z,0.43
2022-07-28T12:10:53.370Z,0.40
2022-07-28T12:13:17.045Z,0.37
2022-07-28T12:15:53.673Z,0.20
2022-07-28T12:18:22.004Z,0.10
2022-07-28T12:20:55.547Z,0.40
2022-07-28T12:23:39.396Z,0.40
2022-07-28T12:26:31.774Z,0.30
2022-07-28T12:29:01.245Z,0.20
2022-07-28T12:31:33.411Z,0.30
2022-07-28T12:34:02.139Z,0.30
2022-07-28T12:36:31.177Z,0.27
2022-07-28T12:39:00.412Z,0.30
2022-07-28T12:41:35.041Z,0.23
2022-07-28T12:44:06.137Z,0.30
2022-07-28T12:46:36.051Z,0.30
2022-07-28T12:49:04.398Z,0.30
2022-07-28T12:51:34.343Z,0.20
2022-07-28T12:54:03.133Z,0.20
2022-07-28T12:56:31.770Z,0.33
2022-07-28T12:59:07.930Z,0.20
2022-07-28T13:01:53.333Z,0.30
2022-07-28T13:04:40.478Z,0.40
2022-07-28T13:07:10.916Z,0.30
2022-07-28T13:09:49.039Z,0.30
2022-07-28T13:12:25.045Z,0.30
2022-07-28T13:14:55.626Z,0.30
2022-07-28T13:17:30.006Z,0.20
2022-07-28T13:20:06.028Z,0.30
2022-07-28T13:22:34.392Z,0.30
2022-07-28T13:25:02.845Z,0.30
2022-07-28T13:27:33.158Z,0.20
2022-07-28T13:30:01.730Z,0.30
2022-07-28T13:32:31.712Z,0.50
2022-07-28T13:35:00.149Z,0.27
2022-07-28T13:37:30.430Z,0.40
2022-07-28T13:40:00.769Z,0.33
2022-07-28T13:42:30.397Z,0.30
2022-07-28T13:44:58.814Z,0.30
2022-07-28T13:47:27.401Z,0.33
2022-07-28T13:50:06.212Z,0.30
2022-07-28T13:52:37.466Z,0.30
2022-07-28T13:55:07.224Z,0.20
2022-07-28T13:57:36.514Z,0.50
2022-07-28T14:00:07.672Z,0.10
2022-07-28T14:02:37.085Z,0.30
2022-07-28T14:05:07.550Z,0.20
2022-07-28T14:07:35.833Z,0.30
2022-07-28T14:10:06.961Z,0.30
2022-07-28T14:12:37.550Z,0.30
2022-07-28T14:15:09.900Z,0.30
2022-07-28T14:17:45.481Z,0.30
2022-07-28T14:20:23.110Z,0.30
2022-07-28T14:22:52.145Z,0.20
2022-07-28T14:25:27.097Z,0.30
2022-07-28T14:27:56.429Z,0.40
2022-07-28T14:30:28.715Z,0.50
2022-07-28T14:32:57.992Z,0.30
2022-07-28T14:35:27.526Z,0.30
2022-07-28T14:38:42.093Z,0.30
2022-07-28T14:40:44.167Z,0.20
2022-07-28T14:43:12.642Z,0.20
2022-07-28T14:46:00.432Z,0.40
2022-07-28T14:48:31.830Z,0.20
2022-07-28T14:51:01.438Z,0.20
2022-07-28T14:53:29.576Z,0.40
2022-07-28T14:55:58.074Z,0.20
2022-07-28T14:58:26.341Z,0.30
2022-07-28T15:00:55.852Z,0.10
2022-07-28T15:03:26.158Z,0.03
2022-07-28T15:05:54.327Z,0.20
2022-07-28T15:08:28.830Z,0.10
2022-07-28T15:10:57.813Z,0.20
2022-07-28T15:13:26.343Z,0.20
2022-07-28T15:15:54.587Z,0.20
2022-07-28T15:18:23.242Z,0.23
2022-07-28T15:20:54.690Z,0.37
2022-07-28T15:23:24.713Z,0.30
2022-07-28T15:25:53.343Z,0.30
2022-07-28T15:28:22.079Z,0.30
2022-07-28T15:30:52.961Z,2.07
2022-07-28T15:33:21.708Z,0.40
2022-07-28T15:35:57.927Z,0.37
2022-07-28T15:38:31.776Z,0.20
2022-07-28T15:41:00.738Z,0.20
2022-07-28T15:43:29.151Z,0.33
2022-07-28T15:45:57.864Z,0.23
2022-07-28T15:48:26.579Z,0.30
2022-07-28T15:50:54.849Z,0.33
2022-07-28T15:53:23.291Z,0.30
2022-07-28T15:55:52.934Z,0.10
2022-07-28T15:58:22.324Z,0.30
2022-07-28T16:00:51.038Z,0.17
2022-07-28T16:03:19.599Z,0.17
2022-07-28T16:05:49.930Z,0.37
2022-07-28T16:08:26.094Z,0.20
2022-07-28T16:10:55.730Z,0.33
2022-07-28T16:13:35.724Z,0.20
2022-07-28T16:16:07.233Z,0.10
2022-07-28T16:18:36.516Z,0.20
2022-07-28T16:21:05.175Z,0.30
2022-07-28T16:23:33.769Z,0.10
2022-07-28T16:26:05.119Z,0.20
2022-07-28T16:28:33.494Z,0.20
2022-07-28T16:31:01.827Z,0.20
2022-07-28T16:33:33.449Z,0.40
2022-07-28T16:36:02.551Z,0.40
2022-07-28T16:38:31.006Z,0.20
2022-07-28T16:40:59.185Z,0.20
2022-07-28T16:43:28.920Z,0.30
2022-07-28T16:45:57.301Z,0.23
2022-07-28T16:48:25.546Z,0.20
2022-07-28T16:50:54.037Z,0.20
2022-07-28T16:53:26.286Z,0.30
2022-07-28T16:55:54.575Z,0.27
2022-07-28T16:58:23.122Z,0.20
2022-07-28T17:00:52.697Z,0.30
2022-07-28T17:03:27.127Z,0.30
2022-07-28T17:05:55.598Z,0.20
2022-07-28T17:08:24.031Z,0.20
2022-07-28T17:10:52.338Z,0.20
2022-07-28T17:13:25.113Z,0.50
2022-07-28T17:15:55.245Z,0.40
2022-07-28T17:18:23.874Z,0.37
2022-07-28T17:20:52.164Z,0.33
2022-07-28T17:23:20.652Z,0.63
2022-07-28T17:28:37.335Z,0.57
2022-07-28T17:31:06.993Z,0.50
2022-07-28T17:33:35.963Z,0.40
2022-07-28T17:36:04.614Z,0.23
2022-07-28T17:38:33.497Z,0.27
2022-07-28T17:41:04.203Z,0.20
2022-07-28T17:43:33.018Z,0.30
2022-07-28T17:46:02.663Z,0.20
2022-07-28T17:48:32.857Z,0.20
2022-07-28T17:51:01.118Z,0.23
2022-07-28T17:53:29.314Z,0.30
2022-07-28T17:56:01.237Z,0.20
2022-07-28T17:58:32.348Z,0.27
2022-07-28T18:01:11.107Z,0.30
2022-07-28T18:03:56.533Z,0.20
2022-07-28T18:06:29.582Z,0.20
2022-07-28T18:09:02.073Z,0.30
2022-07-28T18:11:36.053Z,0.30
2022-07-28T18:14:25.594Z,0.20
2022-07-28T18:16:53.945Z,0.30
2022-07-28T18:19:23.870Z,0.23
2022-07-28T18:21:52.830Z,0.20
2022-07-28T18:24:22.458Z,0.30
2022-07-28T18:26:51.436Z,0.30
2022-07-28T18:29:21.175Z,0.47
2022-07-28T18:31:50.720Z,0.40
2022-07-28T18:34:20.882Z,0.27
2022-07-28T18:36:55.102Z,0.23
2022-07-28T18:39:23.790Z,0.20
2022-07-28T18:41:54.981Z,0.20
2022-07-28T18:44:23.279Z,0.20
2022-07-28T18:46:51.742Z,0.30
2022-07-28T18:49:20.273Z,0.40
2022-07-28T18:51:49.496Z,0.40
2022-07-28T18:54:27.392Z,0.40
2022-07-28T18:56:57.178Z,0.73
2022-07-28T18:59:25.491Z,0.70
2022-07-28T19:01:53.761Z,0.60
2022-07-28T19:04:22.342Z,0.60
2022-07-28T19:06:50.653Z,0.63
2022-07-28T19:09:20.254Z,0.70
2022-07-28T19:11:48.774Z,0.60
2022-07-28T19:14:17.844Z,0.80
2022-07-28T19:16:46.563Z,0.50
2022-07-28T19:19:15.547Z,0.50
2022-07-28T19:21:44.014Z,0.47
2022-07-28T19:24:13.157Z,0.80
2022-07-28T19:26:45.429Z,0.50
2022-07-28T19:29:13.802Z,0.60
2022-07-28T19:31:42.461Z,0.60
2022-07-28T19:34:12.065Z,0.60
2022-07-28T19:36:41.710Z,0.80
2022-07-28T19:39:12.549Z,0.50
2022-07-28T19:41:42.463Z,0.70
2022-07-28T19:44:12.143Z,0.60
2022-07-28T19:46:40.937Z,0.50
2022-07-28T19:49:09.489Z,0.47
2022-07-28T19:51:37.834Z,0.70
2022-07-28T19:54:06.711Z,0.50
2022-07-28T19:56:35.437Z,0.70
2022-07-28T19:59:05.259Z,0.60
2022-07-28T20:01:34.071Z,0.43
2022-07-28T20:04:05.279Z,0.60
2022-07-28T20:06:53.343Z,0.50
2022-07-28T20:09:23.906Z,0.57
2022-07-28T20:11:52.424Z,0.80
2022-07-28T20:14:21.960Z,0.40
2022-07-28T20:16:50.335Z,0.60
2022-07-28T20:19:18.774Z,0.70
2022-07-28T20:21:47.289Z,0.70
2022-07-28T20:24:16.560Z,0.63
2022-07-28T20:26:45.876Z,0.50
2022-07-28T20:29:14.099Z,0.70
2022-07-28T20:31:43.960Z,0.60
2022-07-28T20:34:13.152Z,0.80
2022-07-28T20:36:41.925Z,0.77
2022-07-28T20:39:34.507Z,1.07
2022-07-28T20:41:58.977Z,1.13
2022-07-28T20:44:29.087Z,0.70
2022-07-28T20:47:00.551Z,0.70
2022-07-28T20:49:29.411Z,0.87
2022-07-28T20:51:58.078Z,0.70
2022-07-28T20:54:26.969Z,0.80
2022-07-28T20:56:55.525Z,0.90
2022-07-28T20:59:27.788Z,0.60
2022-07-28T21:01:58.371Z,1.03
2022-07-28T21:04:27.446Z,0.90
2022-07-28T21:07:02.011Z,0.73
2022-07-28T21:09:32.284Z,0.80
2022-07-28T21:12:00.598Z,0.70
2022-07-28T21:14:28.776Z,0.67
2022-07-28T21:16:58.766Z,0.67
2022-07-28T21:19:27.341Z,0.70
2022-07-28T21:21:55.523Z,0.73
2022-07-28T21:24:24.225Z,0.70
2022-07-28T21:26:53.584Z,0.60
2022-07-28T21:31:58.585Z,0.50
2022-07-28T21:34:35.965Z,0.53
2022-07-28T21:37:05.071Z,0.67
2022-07-28T21:39:33.819Z,0.70
2022-07-28T21:42:05.695Z,0.57
2022-07-28T21:44:36.240Z,0.80
2022-07-28T21:47:04.736Z,0.67
2022-07-28T21:49:34.404Z,0.90
2022-07-28T21:52:03.267Z,0.67
2022-07-28T21:54:31.444Z,0.80
2022-07-28T21:56:59.748Z,0.90
2022-07-28T21:59:28.374Z,0.70
2022-07-28T22:01:56.620Z,0.93
2022-07-28T22:04:25.686Z,0.60
2022-07-28T22:06:55.839Z,0.93
2022-07-28T22:09:24.101Z,0.70
2022-07-28T22:11:52.707Z,0.77
2022-07-28T22:14:21.004Z,0.50
2022-07-28T22:16:49.252Z,0.63
2022-07-28T22:19:18.109Z,0.60
2022-07-28T22:21:47.878Z,0.73
2022-07-28T22:24:18.354Z,0.70
2022-07-28T22:26:46.871Z,0.73
2022-07-28T22:29:15.721Z,0.90
2022-07-28T22:31:44.027Z,0.60
2022-07-28T22:34:12.606Z,0.80
2022-07-28T22:36:41.210Z,0.80
2022-07-28T22:39:09.581Z,0.60
2022-07-28T22:41:39.192Z,0.67
2022-07-28T22:44:10.582Z,0.60
2022-07-28T22:46:38.953Z,0.60
2022-07-28T22:49:07.175Z,0.60
2022-07-28T22:51:35.686Z,0.60
2022-07-28T22:54:03.874Z,0.40
2022-07-28T22:56:37.216Z,0.67
2022-07-28T22:59:08.145Z,0.50
2022-07-28T23:01:36.574Z,0.50
2022-07-28T23:04:05.758Z,0.50
2022-07-28T23:06:36.463Z,0.77
2022-07-28T23:09:04.953Z,0.50
2022-07-28T23:11:33.096Z,0.70
2022-07-28T23:14:01.688Z,0.60
2022-07-28T23:16:31.479Z,0.50
2022-07-28T23:19:00.469Z,0.50
2022-07-28T23:21:29.701Z,0.70
2022-07-28T23:23:57.823Z,0.60
2022-07-28T23:26:26.044Z,0.77
2022-07-28T23:28:54.466Z,0.50
2022-07-28T23:31:22.775Z,0.60
2022-07-28T23:33:54.269Z,0.60
2022-07-28T23:36:27.547Z,0.60
2022-07-28T23:38:57.126Z,0.70
2022-07-28T23:41:26.376Z,0.60
2022-07-28T23:43:54.639Z,0.80
2022-07-28T23:46:23.090Z,0.60
2022-07-28T23:48:53.714Z,0.40
2022-07-28T23:51:22.705Z,0.60
2022-07-28T23:54:11.188Z,0.40
2022-07-28T23:56:42.894Z,0.60
2022-07-28T23:59:14.030Z,0.67
